Terminal Aerodrome Forecast
Issued by NWS

Home | Current Version | Previous Version | Text Only | Print | Product List | Glossary On
Versions: 1 2 3 4 5 6 7 8 9 10 11 12 13
000
FTUS46 KEKA 031740
TAFUKI
TAF
KUKI 031740Z 0318/0418 VRB04KT P6SM BKN150 OVC250
     FM031900 13008KT P6SM BKN120 OVC250
     FM040200 36005KT P6SM SCT050 BKN100 OVC250
     FM040600 VRB03KT 6SM BR BKN025 OVC050=

USA.gov is the U.S. government's official web portal to all federal, state and local government web resources and services.